sensor_id;sensor_type;location;lat;lon;timestamp;P1;durP1;ratioP1;P2;durP2;ratioP2
41683;SDS011;27369;52.030;4.586;2022-10-16T00:01:45;7.88;;;1.25;;
41683;SDS011;27369;52.030;4.586;2022-10-16T00:04:11;4.68;;;1.05;;
41683;SDS011;27369;52.030;4.586;2022-10-16T00:06:37;2.95;;;1.20;;
41683;SDS011;27369;52.030;4.586;2022-10-16T00:09:03;2.25;;;0.80;;
41683;SDS011;27369;52.030;4.586;2022-10-16T00:11:30;3.42;;;0.85;;
41683;SDS011;27369;52.030;4.586;2022-10-16T00:13:58;2.38;;;0.90;;
41683;SDS011;27369;52.030;4.586;2022-10-16T00:16:25;4.80;;;1.05;;
41683;SDS011;27369;52.030;4.586;2022-10-16T00:18:52;4.43;;;0.90;;
41683;SDS011;27369;52.030;4.586;2022-10-16T00:21:19;1.92;;;0.95;;
41683;SDS011;27369;52.030;4.586;2022-10-16T00:23:46;3.30;;;0.80;;
41683;SDS011;27369;52.030;4.586;2022-10-16T00:26:15;2.95;;;0.90;;
41683;SDS011;27369;52.030;4.586;2022-10-16T00:28:44;3.75;;;0.80;;
41683;SDS011;27369;52.030;4.586;2022-10-16T00:31:11;1.52;;;0.63;;
41683;SDS011;27369;52.030;4.586;2022-10-16T00:33:37;1.52;;;0.68;;
41683;SDS011;27369;52.030;4.586;2022-10-16T00:36:04;1.02;;;0.50;;
41683;SDS011;27369;52.030;4.586;2022-10-16T00:38:30;2.80;;;0.65;;
41683;SDS011;27369;52.030;4.586;2022-10-16T00:40:56;1.92;;;0.45;;
41683;SDS011;27369;52.030;4.586;2022-10-16T00:43:35;1.45;;;0.50;;
41683;SDS011;27369;52.030;4.586;2022-10-16T00:46:07;2.28;;;0.45;;
41683;SDS011;27369;52.030;4.586;2022-10-16T00:49:13;3.30;;;0.98;;
41683;SDS011;27369;52.030;4.586;2022-10-16T00:51:48;1.50;;;0.73;;
41683;SDS011;27369;52.030;4.586;2022-10-16T00:54:24;2.47;;;0.55;;
41683;SDS011;27369;52.030;4.586;2022-10-16T00:56:52;2.15;;;0.50;;
41683;SDS011;27369;52.030;4.586;2022-10-16T00:59:27;1.95;;;0.70;;
41683;SDS011;27369;52.030;4.586;2022-10-16T01:01:56;3.13;;;0.55;;
41683;SDS011;27369;52.030;4.586;2022-10-16T01:04:23;3.13;;;0.90;;
41683;SDS011;27369;52.030;4.586;2022-10-16T01:15:09;2.40;;;0.80;;
41683;SDS011;27369;52.030;4.586;2022-10-16T01:17:46;4.60;;;0.80;;
41683;SDS011;27369;52.030;4.586;2022-10-16T01:20:20;3.30;;;0.80;;
41683;SDS011;27369;52.030;4.586;2022-10-16T01:28:21;2.78;;;0.90;;
41683;SDS011;27369;52.030;4.586;2022-10-16T01:30:53;5.95;;;1.15;;
41683;SDS011;27369;52.030;4.586;2022-10-16T01:33:24;3.15;;;0.80;;
41683;SDS011;27369;52.030;4.586;2022-10-16T01:35:58;3.40;;;1.40;;
41683;SDS011;27369;52.030;4.586;2022-10-16T01:41:06;3.05;;;1.05;;
41683;SDS011;27369;52.030;4.586;2022-10-16T01:43:37;1.77;;;0.80;;
41683;SDS011;27369;52.030;4.586;2022-10-16T01:46:07;1.88;;;0.88;;
41683;SDS011;27369;52.030;4.586;2022-10-16T01:48:35;2.58;;;0.93;;
41683;SDS011;27369;52.030;4.586;2022-10-16T01:53:37;4.00;;;1.50;;
41683;SDS011;27369;52.030;4.586;2022-10-16T01:56:05;1.52;;;0.80;;
41683;SDS011;27369;52.030;4.586;2022-10-16T01:58:34;3.33;;;0.88;;
41683;SDS011;27369;52.030;4.586;2022-10-16T02:01:04;2.58;;;0.98;;
41683;SDS011;27369;52.030;4.586;2022-10-16T02:03:35;5.10;;;1.30;;
41683;SDS011;27369;52.030;4.586;2022-10-16T02:06:06;2.70;;;1.00;;
41683;SDS011;27369;52.030;4.586;2022-10-16T02:08:32;3.50;;;1.10;;
41683;SDS011;27369;52.030;4.586;2022-10-16T02:10:59;2.70;;;1.25;;
41683;SDS011;27369;52.030;4.586;2022-10-16T02:13:26;3.92;;;1.40;;
41683;SDS011;27369;52.030;4.586;2022-10-16T02:15:56;3.40;;;1.15;;
41683;SDS011;27369;52.030;4.586;2022-10-16T02:18:22;3.90;;;1.60;;
41683;SDS011;27369;52.030;4.586;2022-10-16T02:23:40;3.22;;;1.20;;
41683;SDS011;27369;52.030;4.586;2022-10-16T02:26:16;2.10;;;1.50;;
41683;SDS011;27369;52.030;4.586;2022-10-16T02:28:52;3.70;;;1.30;;
41683;SDS011;27369;52.030;4.586;2022-10-16T02:31:25;4.93;;;1.48;;
41683;SDS011;27369;52.030;4.586;2022-10-16T02:33:54;2.30;;;1.20;;
41683;SDS011;27369;52.030;4.586;2022-10-16T02:36:23;4.13;;;1.40;;
41683;SDS011;27369;52.030;4.586;2022-10-16T02:38:50;4.93;;;1.48;;
41683;SDS011;27369;52.030;4.586;2022-10-16T02:41:18;7.65;;;1.58;;
41683;SDS011;27369;52.030;4.586;2022-10-16T02:43:43;4.07;;;1.50;;
41683;SDS011;27369;52.030;4.586;2022-10-16T02:46:09;3.00;;;1.30;;
41683;SDS011;27369;52.030;4.586;2022-10-16T02:48:34;5.78;;;1.65;;
41683;SDS011;27369;52.030;4.586;2022-10-16T02:51:00;2.70;;;1.27;;
41683;SDS011;27369;52.030;4.586;2022-10-16T02:53:26;2.35;;;1.23;;
41683;SDS011;27369;52.030;4.586;2022-10-16T02:55:51;1.63;;;1.23;;
41683;SDS011;27369;52.030;4.586;2022-10-16T02:58:16;2.45;;;1.25;;
41683;SDS011;27369;52.030;4.586;2022-10-16T03:00:42;4.55;;;1.30;;
41683;SDS011;27369;52.030;4.586;2022-10-16T03:03:07;6.10;;;2.45;;
41683;SDS011;27369;52.030;4.586;2022-10-16T03:05:33;3.58;;;1.33;;
41683;SDS011;27369;52.030;4.586;2022-10-16T03:07:58;2.22;;;1.17;;
41683;SDS011;27369;52.030;4.586;2022-10-16T03:10:25;3.40;;;1.20;;
41683;SDS011;27369;52.030;4.586;2022-10-16T03:12:51;2.13;;;1.17;;
41683;SDS011;27369;52.030;4.586;2022-10-16T03:15:17;4.05;;;1.23;;
41683;SDS011;27369;52.030;4.586;2022-10-16T03:17:42;2.17;;;1.20;;
41683;SDS011;27369;52.030;4.586;2022-10-16T03:20:08;5.13;;;1.10;;
41683;SDS011;27369;52.030;4.586;2022-10-16T03:22:34;2.70;;;1.20;;
41683;SDS011;27369;52.030;4.586;2022-10-16T03:24:59;4.32;;;1.48;;
41683;SDS011;27369;52.030;4.586;2022-10-16T03:27:25;2.40;;;1.08;;
41683;SDS011;27369;52.030;4.586;2022-10-16T03:29:50;3.75;;;1.00;;
41683;SDS011;27369;52.030;4.586;2022-10-16T03:32:15;3.53;;;1.40;;
41683;SDS011;27369;52.030;4.586;2022-10-16T03:34:41;3.95;;;1.33;;
41683;SDS011;27369;52.030;4.586;2022-10-16T03:37:06;3.28;;;0.95;;
41683;SDS011;27369;52.030;4.586;2022-10-16T03:39:32;3.35;;;1.20;;
41683;SDS011;27369;52.030;4.586;2022-10-16T03:41:57;6.30;;;1.52;;
41683;SDS011;27369;52.030;4.586;2022-10-16T03:44:22;2.95;;;1.10;;
41683;SDS011;27369;52.030;4.586;2022-10-16T03:46:48;3.78;;;1.38;;
41683;SDS011;27369;52.030;4.586;2022-10-16T03:49:13;2.50;;;1.05;;
41683;SDS011;27369;52.030;4.586;2022-10-16T03:51:39;2.88;;;1.33;;
41683;SDS011;27369;52.030;4.586;2022-10-16T03:54:04;3.78;;;1.45;;
41683;SDS011;27369;52.030;4.586;2022-10-16T03:56:29;4.95;;;1.33;;
41683;SDS011;27369;52.030;4.586;2022-10-16T03:58:55;4.22;;;0.98;;
41683;SDS011;27369;52.030;4.586;2022-10-16T04:01:20;3.65;;;1.20;;
41683;SDS011;27369;52.030;4.586;2022-10-16T04:03:46;3.00;;;1.20;;
41683;SDS011;27369;52.030;4.586;2022-10-16T04:06:11;3.13;;;1.15;;
41683;SDS011;27369;52.030;4.586;2022-10-16T04:08:36;4.65;;;1.05;;
41683;SDS011;27369;52.030;4.586;2022-10-16T04:11:04;4.88;;;1.30;;
41683;SDS011;27369;52.030;4.586;2022-10-16T04:13:29;5.30;;;1.48;;
41683;SDS011;27369;52.030;4.586;2022-10-16T04:15:55;6.72;;;2.53;;
41683;SDS011;27369;52.030;4.586;2022-10-16T04:18:20;4.22;;;1.88;;
41683;SDS011;27369;52.030;4.586;2022-10-16T04:20:45;3.17;;;1.20;;
41683;SDS011;27369;52.030;4.586;2022-10-16T04:23:11;5.15;;;1.80;;
41683;SDS011;27369;52.030;4.586;2022-10-16T04:25:36;2.67;;;0.90;;
41683;SDS011;27369;52.030;4.586;2022-10-16T04:28:02;2.67;;;1.20;;
41683;SDS011;27369;52.030;4.586;2022-10-16T04:30:28;2.80;;;1.17;;
41683;SDS011;27369;52.030;4.586;2022-10-16T04:32:53;2.05;;;1.10;;
41683;SDS011;27369;52.030;4.586;2022-10-16T04:35:19;2.15;;;1.05;;
41683;SDS011;27369;52.030;4.586;2022-10-16T04:37:46;3.67;;;1.17;;
41683;SDS011;27369;52.030;4.586;2022-10-16T04:40:12;3.80;;;0.90;;
41683;SDS011;27369;52.030;4.586;2022-10-16T04:42:37;2.97;;;1.30;;
41683;SDS011;27369;52.030;4.586;2022-10-16T04:45:04;5.28;;;1.30;;
41683;SDS011;27369;52.030;4.586;2022-10-16T04:47:30;3.85;;;1.33;;
41683;SDS011;27369;52.030;4.586;2022-10-16T04:49:56;2.13;;;1.00;;
41683;SDS011;27369;52.030;4.586;2022-10-16T04:52:22;1.73;;;0.93;;
41683;SDS011;27369;52.030;4.586;2022-10-16T04:54:49;4.93;;;1.63;;
41683;SDS011;27369;52.030;4.586;2022-10-16T04:57:15;3.30;;;1.40;;
41683;SDS011;27369;52.030;4.586;2022-10-16T04:59:40;5.90;;;1.30;;
41683;SDS011;27369;52.030;4.586;2022-10-16T05:02:06;3.35;;;1.40;;
41683;SDS011;27369;52.030;4.586;2022-10-16T05:04:31;5.68;;;1.38;;
41683;SDS011;27369;52.030;4.586;2022-10-16T05:06:56;4.30;;;1.38;;
41683;SDS011;27369;52.030;4.586;2022-10-16T05:09:22;5.57;;;1.50;;
41683;SDS011;27369;52.030;4.586;2022-10-16T05:11:47;4.32;;;1.98;;
41683;SDS011;27369;52.030;4.586;2022-10-16T05:14:13;5.28;;;1.50;;
41683;SDS011;27369;52.030;4.586;2022-10-16T05:16:38;7.10;;;2.20;;
41683;SDS011;27369;52.030;4.586;2022-10-16T05:19:04;6.43;;;1.40;;
41683;SDS011;27369;52.030;4.586;2022-10-16T05:21:29;8.15;;;1.55;;
41683;SDS011;27369;52.030;4.586;2022-10-16T05:23:54;5.28;;;1.33;;
41683;SDS011;27369;52.030;4.586;2022-10-16T05:26:20;3.05;;;1.05;;
41683;SDS011;27369;52.030;4.586;2022-10-16T05:28:45;4.80;;;1.60;;
41683;SDS011;27369;52.030;4.586;2022-10-16T05:31:11;4.63;;;2.00;;
41683;SDS011;27369;52.030;4.586;2022-10-16T05:33:36;4.75;;;1.77;;
41683;SDS011;27369;52.030;4.586;2022-10-16T05:36:06;5.85;;;1.63;;
41683;SDS011;27369;52.030;4.586;2022-10-16T05:38:36;6.88;;;1.58;;
41683;SDS011;27369;52.030;4.586;2022-10-16T05:41:02;4.00;;;1.80;;
41683;SDS011;27369;52.030;4.586;2022-10-16T05:43:30;5.78;;;1.83;;
41683;SDS011;27369;52.030;4.586;2022-10-16T05:45:57;5.97;;;1.50;;
41683;SDS011;27369;52.030;4.586;2022-10-16T05:48:23;9.23;;;3.42;;
41683;SDS011;27369;52.030;4.586;2022-10-16T05:50:55;3.40;;;1.20;;
41683;SDS011;27369;52.030;4.586;2022-10-16T05:53:25;6.03;;;1.60;;
41683;SDS011;27369;52.030;4.586;2022-10-16T05:55:52;7.65;;;1.63;;
41683;SDS011;27369;52.030;4.586;2022-10-16T05:58:18;6.13;;;1.65;;
41683;SDS011;27369;52.030;4.586;2022-10-16T06:00:44;4.25;;;1.50;;
41683;SDS011;27369;52.030;4.586;2022-10-16T06:03:09;6.20;;;1.63;;
41683;SDS011;27369;52.030;4.586;2022-10-16T06:05:34;3.42;;;1.33;;
41683;SDS011;27369;52.030;4.586;2022-10-16T06:08:00;10.20;;;2.53;;
41683;SDS011;27369;52.030;4.586;2022-10-16T06:10:25;5.00;;;1.08;;
41683;SDS011;27369;52.030;4.586;2022-10-16T06:12:51;4.35;;;1.35;;
41683;SDS011;27369;52.030;4.586;2022-10-16T06:15:16;4.00;;;1.23;;
41683;SDS011;27369;52.030;4.586;2022-10-16T06:17:41;3.78;;;1.52;;
41683;SDS011;27369;52.030;4.586;2022-10-16T06:20:07;2.58;;;1.42;;
41683;SDS011;27369;52.030;4.586;2022-10-16T06:22:32;4.90;;;1.17;;
41683;SDS011;27369;52.030;4.586;2022-10-16T06:24:58;4.93;;;1.13;;
41683;SDS011;27369;52.030;4.586;2022-10-16T06:27:23;3.42;;;1.33;;
41683;SDS011;27369;52.030;4.586;2022-10-16T06:29:49;4.55;;;1.35;;
41683;SDS011;27369;52.030;4.586;2022-10-16T06:32:14;3.67;;;1.08;;
41683;SDS011;27369;52.030;4.586;2022-10-16T06:34:39;5.10;;;1.42;;
41683;SDS011;27369;52.030;4.586;2022-10-16T06:37:06;4.50;;;1.53;;
41683;SDS011;27369;52.030;4.586;2022-10-16T06:39:31;6.50;;;1.42;;
41683;SDS011;27369;52.030;4.586;2022-10-16T06:41:57;2.28;;;0.90;;
41683;SDS011;27369;52.030;4.586;2022-10-16T06:44:22;13.40;;;1.17;;
41683;SDS011;27369;52.030;4.586;2022-10-16T06:46:47;6.25;;;1.40;;
41683;SDS011;27369;52.030;4.586;2022-10-16T06:49:13;4.57;;;0.90;;
41683;SDS011;27369;52.030;4.586;2022-10-16T06:51:40;5.00;;;0.70;;
41683;SDS011;27369;52.030;4.586;2022-10-16T06:54:06;3.85;;;0.98;;
41683;SDS011;27369;52.030;4.586;2022-10-16T06:56:32;8.85;;;1.20;;
41683;SDS011;27369;52.030;4.586;2022-10-16T06:58:58;4.93;;;0.93;;
41683;SDS011;27369;52.030;4.586;2022-10-16T07:01:24;3.63;;;0.95;;
41683;SDS011;27369;52.030;4.586;2022-10-16T07:03:50;5.47;;;0.95;;
41683;SDS011;27369;52.030;4.586;2022-10-16T07:06:17;5.40;;;1.55;;
41683;SDS011;27369;52.030;4.586;2022-10-16T07:08:45;6.70;;;1.25;;
41683;SDS011;27369;52.030;4.586;2022-10-16T07:11:15;4.22;;;0.85;;
41683;SDS011;27369;52.030;4.586;2022-10-16T07:13:43;8.60;;;1.13;;
41683;SDS011;27369;52.030;4.586;2022-10-16T07:16:13;6.68;;;1.25;;
41683;SDS011;27369;52.030;4.586;2022-10-16T07:18:40;3.88;;;1.20;;
41683;SDS011;27369;52.030;4.586;2022-10-16T07:21:14;5.43;;;0.95;;
41683;SDS011;27369;52.030;4.586;2022-10-16T07:23:41;5.85;;;1.10;;
41683;SDS011;27369;52.030;4.586;2022-10-16T07:26:08;3.60;;;1.20;;
41683;SDS011;27369;52.030;4.586;2022-10-16T07:28:35;5.47;;;1.33;;
41683;SDS011;27369;52.030;4.586;2022-10-16T07:31:01;13.00;;;1.50;;
41683;SDS011;27369;52.030;4.586;2022-10-16T07:33:28;7.93;;;1.27;;
41683;SDS011;27369;52.030;4.586;2022-10-16T07:38:20;7.83;;;1.80;;
41683;SDS011;27369;52.030;4.586;2022-10-16T07:43:11;6.47;;;1.60;;
41683;SDS011;27369;52.030;4.586;2022-10-16T07:45:37;6.95;;;1.58;;
41683;SDS011;27369;52.030;4.586;2022-10-16T07:48:11;6.95;;;1.50;;
41683;SDS011;27369;52.030;4.586;2022-10-16T07:50:36;5.32;;;1.63;;
41683;SDS011;27369;52.030;4.586;2022-10-16T07:55:28;6.60;;;1.30;;
41683;SDS011;27369;52.030;4.586;2022-10-16T07:57:54;6.32;;;1.75;;
41683;SDS011;27369;52.030;4.586;2022-10-16T08:00:19;9.15;;;1.58;;
41683;SDS011;27369;52.030;4.586;2022-10-16T08:02:45;10.23;;;1.60;;
41683;SDS011;27369;52.030;4.586;2022-10-16T08:05:10;7.72;;;1.20;;
41683;SDS011;27369;52.030;4.586;2022-10-16T08:07:35;3.65;;;1.33;;
41683;SDS011;27369;52.030;4.586;2022-10-16T08:10:01;9.20;;;1.20;;
41683;SDS011;27369;52.030;4.586;2022-10-16T08:12:26;7.30;;;1.33;;
41683;SDS011;27369;52.030;4.586;2022-10-16T08:14:52;8.55;;;1.50;;
41683;SDS011;27369;52.030;4.586;2022-10-16T08:17:17;9.60;;;1.55;;
41683;SDS011;27369;52.030;4.586;2022-10-16T08:19:46;7.03;;;1.30;;
41683;SDS011;27369;52.030;4.586;2022-10-16T08:22:12;8.35;;;1.40;;
41683;SDS011;27369;52.030;4.586;2022-10-16T08:24:40;7.75;;;2.00;;
41683;SDS011;27369;52.030;4.586;2022-10-16T08:27:06;5.80;;;1.35;;
41683;SDS011;27369;52.030;4.586;2022-10-16T08:29:32;8.50;;;1.40;;
41683;SDS011;27369;52.030;4.586;2022-10-16T08:31:57;6.40;;;1.20;;
41683;SDS011;27369;52.030;4.586;2022-10-16T08:34:23;6.95;;;1.38;;
41683;SDS011;27369;52.030;4.586;2022-10-16T08:36:49;9.68;;;1.48;;
41683;SDS011;27369;52.030;4.586;2022-10-16T08:39:15;12.40;;;2.05;;
41683;SDS011;27369;52.030;4.586;2022-10-16T08:41:53;10.40;;;1.70;;
41683;SDS011;27369;52.030;4.586;2022-10-16T08:48:00;7.90;;;1.58;;
41683;SDS011;27369;52.030;4.586;2022-10-16T08:50:14;8.57;;;1.30;;
41683;SDS011;27369;52.030;4.586;2022-10-16T08:52:46;10.90;;;1.70;;
41683;SDS011;27369;52.030;4.586;2022-10-16T08:55:29;11.95;;;2.03;;
41683;SDS011;27369;52.030;4.586;2022-10-16T08:57:55;11.05;;;1.88;;
41683;SDS011;27369;52.030;4.586;2022-10-16T09:00:20;9.18;;;1.60;;
41683;SDS011;27369;52.030;4.586;2022-10-16T09:08:24;12.50;;;1.52;;
41683;SDS011;27369;52.030;4.586;2022-10-16T09:11:17;5.57;;;1.42;;
41683;SDS011;27369;52.030;4.586;2022-10-16T09:16:41;10.93;;;1.65;;
41683;SDS011;27369;52.030;4.586;2022-10-16T09:19:22;14.18;;;2.47;;
41683;SDS011;27369;52.030;4.586;2022-10-16T09:21:52;7.20;;;1.65;;
41683;SDS011;27369;52.030;4.586;2022-10-16T09:26:46;7.55;;;1.42;;
41683;SDS011;27369;52.030;4.586;2022-10-16T09:29:12;8.60;;;1.95;;
41683;SDS011;27369;52.030;4.586;2022-10-16T09:31:39;11.50;;;2.30;;
41683;SDS011;27369;52.030;4.586;2022-10-16T09:34:05;15.48;;;2.95;;
41683;SDS011;27369;52.030;4.586;2022-10-16T09:36:39;8.80;;;1.63;;
41683;SDS011;27369;52.030;4.586;2022-10-16T09:39:08;12.57;;;2.10;;
41683;SDS011;27369;52.030;4.586;2022-10-16T09:41:35;14.68;;;1.63;;
41683;SDS011;27369;52.030;4.586;2022-10-16T09:44:05;7.85;;;1.52;;
41683;SDS011;27369;52.030;4.586;2022-10-16T09:46:41;6.65;;;1.33;;
41683;SDS011;27369;52.030;4.586;2022-10-16T09:52:14;12.77;;;2.08;;
41683;SDS011;27369;52.030;4.586;2022-10-16T09:54:52;12.68;;;2.22;;
41683;SDS011;27369;52.030;4.586;2022-10-16T09:57:18;7.80;;;1.63;;
41683;SDS011;27369;52.030;4.586;2022-10-16T10:02:18;10.55;;;2.08;;
41683;SDS011;27369;52.030;4.586;2022-10-16T10:04:51;14.30;;;2.00;;
41683;SDS011;27369;52.030;4.586;2022-10-16T10:07:30;6.97;;;2.13;;
41683;SDS011;27369;52.030;4.586;2022-10-16T10:10:03;11.98;;;1.98;;
41683;SDS011;27369;52.030;4.586;2022-10-16T10:12:30;9.95;;;1.85;;
41683;SDS011;27369;52.030;4.586;2022-10-16T10:15:02;11.82;;;1.77;;
41683;SDS011;27369;52.030;4.586;2022-10-16T10:17:30;8.23;;;1.33;;
41683;SDS011;27369;52.030;4.586;2022-10-16T10:19:57;12.65;;;2.13;;
41683;SDS011;27369;52.030;4.586;2022-10-16T10:22:29;15.70;;;1.88;;
41683;SDS011;27369;52.030;4.586;2022-10-16T10:30:24;10.63;;;1.92;;
41683;SDS011;27369;52.030;4.586;2022-10-16T10:44:11;7.18;;;1.92;;
41683;SDS011;27369;52.030;4.586;2022-10-16T10:46:57;7.70;;;1.70;;
41683;SDS011;27369;52.030;4.586;2022-10-16T10:52:20;8.82;;;1.70;;
41683;SDS011;27369;52.030;4.586;2022-10-16T11:00:20;5.85;;;1.33;;
41683;SDS011;27369;52.030;4.586;2022-10-16T11:05:38;8.65;;;1.80;;
41683;SDS011;27369;52.030;4.586;2022-10-16T11:08:21;9.25;;;1.60;;
41683;SDS011;27369;52.030;4.586;2022-10-16T11:11:03;9.98;;;1.55;;
41683;SDS011;27369;52.030;4.586;2022-10-16T11:13:35;12.05;;;1.85;;
41683;SDS011;27369;52.030;4.586;2022-10-16T11:19:05;12.43;;;1.50;;
41683;SDS011;27369;52.030;4.586;2022-10-16T11:21:50;11.18;;;2.00;;
41683;SDS011;27369;52.030;4.586;2022-10-16T11:27:19;7.13;;;1.50;;
41683;SDS011;27369;52.030;4.586;2022-10-16T11:29:52;11.63;;;1.80;;
41683;SDS011;27369;52.030;4.586;2022-10-16T11:32:31;6.85;;;1.20;;
41683;SDS011;27369;52.030;4.586;2022-10-16T11:35:02;5.80;;;1.30;;
41683;SDS011;27369;52.030;4.586;2022-10-16T11:37:41;8.23;;;1.60;;
41683;SDS011;27369;52.030;4.586;2022-10-16T11:40:16;8.52;;;1.63;;
41683;SDS011;27369;52.030;4.586;2022-10-16T11:42:50;7.55;;;1.30;;
41683;SDS011;27369;52.030;4.586;2022-10-16T11:45:24;10.18;;;1.70;;
41683;SDS011;27369;52.030;4.586;2022-10-16T11:53:23;9.75;;;1.55;;
41683;SDS011;27369;52.030;4.586;2022-10-16T11:55:59;7.57;;;1.30;;
41683;SDS011;27369;52.030;4.586;2022-10-16T12:03:35;7.75;;;1.75;;
41683;SDS011;27369;52.030;4.586;2022-10-16T12:06:30;10.68;;;1.77;;
41683;SDS011;27369;52.030;4.586;2022-10-16T12:09:03;16.67;;;2.60;;
41683;SDS011;27369;52.030;4.586;2022-10-16T12:14:05;11.90;;;1.50;;
41683;SDS011;27369;52.030;4.586;2022-10-16T12:16:32;7.28;;;1.60;;
41683;SDS011;27369;52.030;4.586;2022-10-16T12:19:10;9.05;;;1.60;;
41683;SDS011;27369;52.030;4.586;2022-10-16T12:21:40;9.68;;;1.83;;
41683;SDS011;27369;52.030;4.586;2022-10-16T12:24:06;10.00;;;1.80;;
41683;SDS011;27369;52.030;4.586;2022-10-16T12:26:46;13.73;;;1.73;;
41683;SDS011;27369;52.030;4.586;2022-10-16T12:29:35;10.20;;;1.88;;
41683;SDS011;27369;52.030;4.586;2022-10-16T12:32:24;12.07;;;2.10;;
41683;SDS011;27369;52.030;4.586;2022-10-16T12:35:01;9.20;;;1.50;;
41683;SDS011;27369;52.030;4.586;2022-10-16T12:37:33;7.47;;;1.33;;
41683;SDS011;27369;52.030;4.586;2022-10-16T12:40:14;10.38;;;1.85;;
41683;SDS011;27369;52.030;4.586;2022-10-16T12:42:48;9.88;;;1.90;;
41683;SDS011;27369;52.030;4.586;2022-10-16T12:45:24;14.63;;;2.67;;
41683;SDS011;27369;52.030;4.586;2022-10-16T12:47:51;8.95;;;1.20;;
41683;SDS011;27369;52.030;4.586;2022-10-16T12:50:37;10.90;;;1.77;;
41683;SDS011;27369;52.030;4.586;2022-10-16T12:56:12;8.65;;;1.58;;
41683;SDS011;27369;52.030;4.586;2022-10-16T13:01:34;9.93;;;1.77;;
41683;SDS011;27369;52.030;4.586;2022-10-16T13:04:15;9.73;;;1.75;;
41683;SDS011;27369;52.030;4.586;2022-10-16T13:16:00;9.43;;;1.52;;
41683;SDS011;27369;52.030;4.586;2022-10-16T13:18:41;7.97;;;1.75;;
41683;SDS011;27369;52.030;4.586;2022-10-16T13:24:01;9.80;;;2.13;;
41683;SDS011;27369;52.030;4.586;2022-10-16T13:29:17;11.00;;;1.90;;
41683;SDS011;27369;52.030;4.586;2022-10-16T13:31:43;10.32;;;1.92;;
41683;SDS011;27369;52.030;4.586;2022-10-16T13:34:12;9.77;;;1.85;;
41683;SDS011;27369;52.030;4.586;2022-10-16T13:36:46;14.75;;;2.05;;
41683;SDS011;27369;52.030;4.586;2022-10-16T13:39:28;10.02;;;1.73;;
41683;SDS011;27369;52.030;4.586;2022-10-16T13:42:01;11.45;;;1.48;;
41683;SDS011;27369;52.030;4.586;2022-10-16T13:44:28;9.80;;;1.70;;
41683;SDS011;27369;52.030;4.586;2022-10-16T13:47:00;14.80;;;1.83;;
41683;SDS011;27369;52.030;4.586;2022-10-16T13:51:55;8.80;;;1.53;;
41683;SDS011;27369;52.030;4.586;2022-10-16T13:54:24;11.13;;;1.40;;
41683;SDS011;27369;52.030;4.586;2022-10-16T13:56:51;8.30;;;1.60;;
41683;SDS011;27369;52.030;4.586;2022-10-16T13:59:27;10.25;;;2.15;;
41683;SDS011;27369;52.030;4.586;2022-10-16T14:01:59;8.48;;;1.90;;
41683;SDS011;27369;52.030;4.586;2022-10-16T14:04:33;13.85;;;1.73;;
41683;SDS011;27369;52.030;4.586;2022-10-16T14:07:03;13.10;;;1.90;;
41683;SDS011;27369;52.030;4.586;2022-10-16T14:09:29;9.98;;;1.50;;
41683;SDS011;27369;52.030;4.586;2022-10-16T14:11:56;7.38;;;1.52;;
41683;SDS011;27369;52.030;4.586;2022-10-16T14:14:29;10.13;;;1.42;;
41683;SDS011;27369;52.030;4.586;2022-10-16T14:17:06;9.93;;;1.92;;
41683;SDS011;27369;52.030;4.586;2022-10-16T14:19:31;11.55;;;2.00;;
41683;SDS011;27369;52.030;4.586;2022-10-16T14:21:57;10.63;;;1.50;;
41683;SDS011;27369;52.030;4.586;2022-10-16T14:24:34;7.30;;;1.50;;
41683;SDS011;27369;52.030;4.586;2022-10-16T14:27:00;12.90;;;2.13;;
41683;SDS011;27369;52.030;4.586;2022-10-16T14:29:27;8.15;;;1.52;;
41683;SDS011;27369;52.030;4.586;2022-10-16T14:32:00;8.48;;;1.80;;
41683;SDS011;27369;52.030;4.586;2022-10-16T14:36:57;13.30;;;2.17;;
41683;SDS011;27369;52.030;4.586;2022-10-16T14:39:27;13.25;;;2.30;;
41683;SDS011;27369;52.030;4.586;2022-10-16T14:41:54;10.73;;;1.70;;
41683;SDS011;27369;52.030;4.586;2022-10-16T14:44:22;9.55;;;2.38;;
41683;SDS011;27369;52.030;4.586;2022-10-16T14:46:53;13.52;;;2.53;;
41683;SDS011;27369;52.030;4.586;2022-10-16T14:49:19;12.00;;;1.92;;
41683;SDS011;27369;52.030;4.586;2022-10-16T14:51:47;7.88;;;1.58;;
41683;SDS011;27369;52.030;4.586;2022-10-16T14:54:13;11.10;;;1.73;;
41683;SDS011;27369;52.030;4.586;2022-10-16T14:59:29;10.52;;;2.15;;
41683;SDS011;27369;52.030;4.586;2022-10-16T15:04:52;13.75;;;2.72;;
41683;SDS011;27369;52.030;4.586;2022-10-16T15:07:17;10.68;;;1.88;;
41683;SDS011;27369;52.030;4.586;2022-10-16T15:09:43;9.52;;;2.58;;
41683;SDS011;27369;52.030;4.586;2022-10-16T15:12:08;9.52;;;1.88;;
41683;SDS011;27369;52.030;4.586;2022-10-16T15:14:34;9.05;;;1.65;;
41683;SDS011;27369;52.030;4.586;2022-10-16T15:16:59;9.65;;;1.80;;
41683;SDS011;27369;52.030;4.586;2022-10-16T15:19:24;13.88;;;1.75;;
41683;SDS011;27369;52.030;4.586;2022-10-16T15:21:50;12.85;;;1.80;;
41683;SDS011;27369;52.030;4.586;2022-10-16T15:24:16;8.68;;;1.90;;
41683;SDS011;27369;52.030;4.586;2022-10-16T15:26:41;13.02;;;2.08;;
41683;SDS011;27369;52.030;4.586;2022-10-16T15:29:07;20.42;;;5.93;;
41683;SDS011;27369;52.030;4.586;2022-10-16T15:31:32;13.48;;;2.13;;
41683;SDS011;27369;52.030;4.586;2022-10-16T15:33:58;10.73;;;3.40;;
41683;SDS011;27369;52.030;4.586;2022-10-16T15:36:29;15.18;;;4.93;;
41683;SDS011;27369;52.030;4.586;2022-10-16T15:38:59;12.27;;;3.80;;
41683;SDS011;27369;52.030;4.586;2022-10-16T15:41:25;9.77;;;2.53;;
41683;SDS011;27369;52.030;4.586;2022-10-16T15:43:51;12.20;;;1.95;;
41683;SDS011;27369;52.030;4.586;2022-10-16T15:46:18;14.85;;;3.33;;
41683;SDS011;27369;52.030;4.586;2022-10-16T15:48:44;11.00;;;2.35;;
41683;SDS011;27369;52.030;4.586;2022-10-16T15:51:10;10.18;;;2.08;;
41683;SDS011;27369;52.030;4.586;2022-10-16T15:53:35;11.25;;;2.38;;
41683;SDS011;27369;52.030;4.586;2022-10-16T15:56:04;8.60;;;1.85;;
41683;SDS011;27369;52.030;4.586;2022-10-16T15:58:31;12.50;;;2.25;;
41683;SDS011;27369;52.030;4.586;2022-10-16T16:00:57;10.63;;;1.70;;
41683;SDS011;27369;52.030;4.586;2022-10-16T16:03:25;12.35;;;1.80;;
41683;SDS011;27369;52.030;4.586;2022-10-16T16:05:51;11.82;;;2.35;;
41683;SDS011;27369;52.030;4.586;2022-10-16T16:08:16;12.63;;;1.73;;
41683;SDS011;27369;52.030;4.586;2022-10-16T16:10:42;10.68;;;2.22;;
41683;SDS011;27369;52.030;4.586;2022-10-16T16:13:07;13.40;;;3.90;;
41683;SDS011;27369;52.030;4.586;2022-10-16T16:15:33;14.88;;;3.90;;
41683;SDS011;27369;52.030;4.586;2022-10-16T16:17:58;11.07;;;2.63;;
41683;SDS011;27369;52.030;4.586;2022-10-16T16:20:25;14.75;;;3.38;;
41683;SDS011;27369;52.030;4.586;2022-10-16T16:22:50;14.95;;;4.78;;
41683;SDS011;27369;52.030;4.586;2022-10-16T16:25:16;14.20;;;5.13;;
41683;SDS011;27369;52.030;4.586;2022-10-16T16:27:42;13.98;;;5.00;;
41683;SDS011;27369;52.030;4.586;2022-10-16T16:30:09;14.52;;;3.97;;
41683;SDS011;27369;52.030;4.586;2022-10-16T16:32:36;13.30;;;3.88;;
41683;SDS011;27369;52.030;4.586;2022-10-16T16:35:02;11.98;;;3.28;;
41683;SDS011;27369;52.030;4.586;2022-10-16T16:37:28;15.88;;;3.13;;
41683;SDS011;27369;52.030;4.586;2022-10-16T16:39:54;13.73;;;3.33;;
41683;SDS011;27369;52.030;4.586;2022-10-16T16:42:23;10.80;;;3.03;;
41683;SDS011;27369;52.030;4.586;2022-10-16T16:44:49;12.95;;;2.80;;
41683;SDS011;27369;52.030;4.586;2022-10-16T16:47:14;10.35;;;2.47;;
41683;SDS011;27369;52.030;4.586;2022-10-16T16:49:39;11.07;;;2.58;;
41683;SDS011;27369;52.030;4.586;2022-10-16T16:52:05;13.60;;;2.47;;
41683;SDS011;27369;52.030;4.586;2022-10-16T16:54:31;16.38;;;3.00;;
41683;SDS011;27369;52.030;4.586;2022-10-16T16:56:56;10.13;;;2.38;;
41683;SDS011;27369;52.030;4.586;2022-10-16T16:59:22;15.70;;;3.65;;